createdAt,value
2023-05-10T06:37:08.825Z,14.22
2023-05-10T06:39:35.203Z,14.07
2023-05-10T06:42:02.673Z,14.01
2023-05-10T06:44:29.053Z,14.06
2023-05-10T06:46:56.690Z,14.09
2023-05-10T06:49:23.094Z,14.28
2023-05-10T06:51:49.991Z,14.30
2023-05-10T06:54:16.367Z,14.39
2023-05-10T06:56:42.729Z,14.41
2023-05-10T06:59:09.111Z,14.29
2023-05-10T07:01:35.589Z,14.44
2023-05-10T07:04:01.998Z,14.51
2023-05-10T07:06:33.509Z,14.59
2023-05-10T07:09:01.331Z,14.61
2023-05-10T07:11:27.762Z,14.73
2023-05-10T07:13:54.153Z,14.66
2023-05-10T07:16:20.653Z,14.69
2023-05-10T07:18:47.121Z,14.69
2023-05-10T07:21:13.531Z,14.74
2023-05-10T07:23:39.988Z,14.78
2023-05-10T07:26:06.368Z,14.92
2023-05-10T07:28:32.769Z,14.88
2023-05-10T07:30:59.197Z,15.04
2023-05-10T07:33:25.619Z,15.18
2023-05-10T07:35:51.983Z,15.10
2023-05-10T07:38:18.453Z,15.07
2023-05-10T07:40:44.877Z,15.19
2023-05-10T07:43:11.309Z,15.35
2023-05-10T07:45:37.755Z,15.24
2023-05-10T07:48:04.193Z,15.38
2023-05-10T07:50:30.742Z,15.52
2023-05-10T07:52:57.486Z,15.47
2023-05-10T07:55:23.852Z,15.69
2023-05-10T07:57:50.259Z,15.71
2023-05-10T08:00:21.121Z,15.81
2023-05-10T08:02:48.186Z,15.99
2023-05-10T08:05:15.681Z,15.93
2023-05-10T08:07:43.303Z,16.04
2023-05-10T08:10:11.929Z,16.02
2023-05-10T08:12:39.198Z,16.14
2023-05-10T08:15:06.209Z,16.06
2023-05-10T08:17:32.719Z,16.19
2023-05-10T08:19:59.120Z,16.21
2023-05-10T08:22:25.508Z,16.39
2023-05-10T08:24:51.928Z,16.27
2023-05-10T08:27:18.383Z,16.42
2023-05-10T08:29:50.212Z,16.39
2023-05-10T08:32:17.139Z,16.65
2023-05-10T08:34:43.639Z,16.83
2023-05-10T08:37:11.458Z,16.69
2023-05-10T08:39:38.234Z,16.82
2023-05-10T08:42:05.712Z,16.88
2023-05-10T08:44:33.490Z,17.02
2023-05-10T08:47:03.408Z,17.13
2023-05-10T08:49:32.650Z,17.19
2023-05-10T08:52:02.776Z,17.43
2023-05-10T08:54:29.212Z,17.48
2023-05-10T08:56:55.780Z,17.51
2023-05-10T08:59:22.525Z,17.47
2023-05-10T09:01:50.356Z,17.63
2023-05-10T09:04:17.498Z,17.63
2023-05-10T09:06:44.053Z,17.66
2023-05-10T09:09:10.908Z,17.76
2023-05-10T09:11:37.483Z,18.01
2023-05-10T09:14:04.008Z,17.92
2023-05-10T09:16:30.585Z,17.97
2023-05-10T09:18:57.085Z,18.00
2023-05-10T09:21:23.512Z,18.25
2023-05-10T09:23:51.223Z,18.19
2023-05-10T09:26:18.396Z,18.10
2023-05-10T09:28:53.430Z,18.20
2023-05-10T09:31:20.151Z,18.25
2023-05-10T09:33:47.984Z,18.40
2023-05-10T09:36:14.901Z,18.31
2023-05-10T09:38:55.713Z,18.42
2023-05-10T09:41:24.104Z,18.50
2023-05-10T09:43:50.746Z,18.65
2023-05-10T09:46:17.481Z,18.83
2023-05-10T09:48:48.554Z,18.80
2023-05-10T09:51:25.768Z,18.73
2023-05-10T09:54:11.140Z,18.92
2023-05-10T09:56:41.275Z,19.14
2023-05-10T09:59:10.276Z,19.09
2023-05-10T10:01:37.453Z,19.25
2023-05-10T10:04:05.926Z,19.26
2023-05-10T10:06:39.922Z,19.25
2023-05-10T10:09:07.440Z,19.30
2023-05-10T10:11:38.558Z,19.29
2023-05-10T10:14:06.208Z,19.64
2023-05-10T10:16:33.172Z,19.61
2023-05-10T10:18:59.777Z,19.57
2023-05-10T10:21:26.534Z,19.55
2023-05-10T10:23:53.965Z,19.62
2023-05-10T10:26:22.511Z,19.73
2023-05-10T10:29:13.888Z,19.88
2023-05-10T10:31:47.098Z,20.05
2023-05-10T10:34:27.939Z,20.05
2023-05-10T10:36:55.632Z,20.37
2023-05-10T10:39:22.172Z,20.14
2023-05-10T10:41:52.807Z,20.40
2023-05-10T10:44:31.871Z,20.39
2023-05-10T10:47:19.400Z,20.61
2023-05-10T10:50:03.227Z,20.54
2023-05-10T10:52:35.154Z,20.59
2023-05-10T10:55:12.001Z,20.82
2023-05-10T10:57:41.327Z,20.82
2023-05-10T11:00:28.086Z,20.67
2023-05-10T11:03:07.274Z,20.85
2023-05-10T11:05:33.670Z,20.67
2023-05-10T11:08:01.212Z,20.97
2023-05-10T11:10:28.189Z,20.80
2023-05-10T11:13:03.976Z,20.71
2023-05-10T11:15:32.315Z,20.92
2023-05-10T11:17:58.874Z,21.05
2023-05-10T11:20:34.044Z,21.24
2023-05-10T11:23:13.807Z,21.01
2023-05-10T11:25:45.059Z,21.19
2023-05-10T11:28:13.670Z,21.44
2023-05-10T11:30:41.421Z,21.72
2023-05-10T11:33:09.171Z,21.77
2023-05-10T11:35:42.484Z,21.83
2023-05-10T11:38:11.171Z,22.06
2023-05-10T11:40:38.611Z,21.70
2023-05-10T11:43:05.499Z,21.98
2023-05-10T11:45:35.921Z,22.08
2023-05-10T11:48:03.577Z,21.84
2023-05-10T11:50:30.036Z,22.16
2023-05-10T11:52:58.018Z,22.44
2023-05-10T11:55:25.253Z,22.17
2023-05-10T11:57:55.730Z,22.14
2023-05-10T12:00:22.471Z,22.28
2023-05-10T12:02:49.744Z,21.88
2023-05-10T12:05:17.220Z,22.53
2023-05-10T12:07:43.859Z,22.55
2023-05-10T12:10:13.163Z,22.38
2023-05-10T12:12:43.040Z,22.55
2023-05-10T12:15:17.698Z,22.82
2023-05-10T12:17:45.645Z,22.62
2023-05-10T12:20:17.547Z,22.96
2023-05-10T12:22:50.409Z,23.00
2023-05-10T12:25:17.453Z,22.91
2023-05-10T12:27:52.514Z,23.26
2023-05-10T12:30:26.861Z,23.19
2023-05-10T12:32:54.141Z,23.32
2023-05-10T12:35:22.953Z,23.29
2023-05-10T12:37:49.328Z,23.26
2023-05-10T12:40:15.857Z,23.47
2023-05-10T12:42:42.457Z,23.40
2023-05-10T12:45:09.781Z,23.92
2023-05-10T12:47:36.766Z,23.96
2023-05-10T12:50:04.126Z,23.76
2023-05-10T12:52:32.964Z,24.02
2023-05-10T12:55:00.574Z,23.85
2023-05-10T12:57:28.030Z,23.62
2023-05-10T12:59:55.057Z,24.03
2023-05-10T13:02:22.239Z,24.22
2023-05-10T13:04:50.922Z,24.19
2023-05-10T13:07:17.564Z,25.11
2023-05-10T13:09:44.332Z,25.54
2023-05-10T13:12:10.817Z,25.71
2023-05-10T13:14:37.197Z,26.30
2023-05-10T13:17:03.628Z,27.12
2023-05-10T13:19:30.075Z,26.39
2023-05-10T13:21:56.510Z,27.40
2023-05-10T13:24:23.242Z,28.07
2023-05-10T13:26:49.691Z,28.74
2023-05-10T13:29:18.346Z,28.77
2023-05-10T13:31:44.898Z,29.18
2023-05-10T13:34:11.291Z,29.75
2023-05-10T13:36:37.803Z,30.61
2023-05-10T13:39:06.180Z,31.21
2023-05-10T13:41:32.758Z,32.23
2023-05-10T13:43:59.242Z,32.48
2023-05-10T13:46:25.733Z,29.83
2023-05-10T13:48:52.197Z,29.22
2023-05-10T13:51:18.632Z,32.79
2023-05-10T13:53:45.020Z,35.52
2023-05-10T13:56:11.415Z,38.54
2023-05-10T13:58:37.977Z,37.39
2023-05-10T14:01:05.803Z,37.63
2023-05-10T14:03:32.327Z,38.24
2023-05-10T14:05:58.999Z,37.81
2023-05-10T14:08:25.374Z,32.09
2023-05-10T14:10:53.214Z,35.63
2023-05-10T14:13:19.606Z,34.20
2023-05-10T14:15:46.030Z,33.08
2023-05-10T14:18:12.438Z,34.86
2023-05-10T14:20:38.872Z,30.72
2023-05-10T14:23:05.343Z,32.86
2023-05-10T14:25:31.782Z,39.67
2023-05-10T14:27:58.350Z,39.72
2023-05-10T14:30:24.745Z,38.87
2023-05-10T14:32:51.269Z,38.97
2023-05-10T14:35:19.428Z,39.87
2023-05-10T14:37:46.383Z,40.40
2023-05-10T14:40:13.347Z,40.05
2023-05-10T14:42:39.761Z,35.70
2023-05-10T14:45:06.608Z,40.02
2023-05-10T14:47:33.027Z,41.88
2023-05-10T14:49:59.471Z,40.09
2023-05-10T14:52:25.977Z,40.57
2023-05-10T14:54:52.577Z,39.28
2023-05-10T14:57:18.963Z,34.26
2023-05-10T14:59:45.312Z,37.18
2023-05-10T15:02:12.492Z,36.12
2023-05-10T15:04:39.328Z,38.65
2023-05-10T15:07:06.710Z,32.42
2023-05-10T15:09:33.086Z,30.69
2023-05-10T15:11:59.486Z,30.99
2023-05-10T15:14:25.884Z,36.30
2023-05-10T15:16:52.267Z,34.61
2023-05-10T15:19:18.711Z,30.73
2023-05-10T15:21:45.563Z,29.67
2023-05-10T15:24:12.004Z,36.27
2023-05-10T15:26:38.408Z,39.68
2023-05-10T15:29:04.858Z,36.72
2023-05-10T15:31:31.373Z,30.72
2023-05-10T15:33:59.916Z,29.62
2023-05-10T15:36:26.288Z,28.27
2023-05-10T15:38:53.832Z,31.80
2023-05-10T15:41:22.167Z,29.72
2023-05-10T15:43:48.792Z,28.90
2023-05-10T15:46:15.229Z,28.53
2023-05-10T15:48:41.644Z,27.12
2023-05-10T15:51:07.992Z,27.96
2023-05-10T15:53:34.363Z,27.54
2023-05-10T15:56:00.821Z,27.24
2023-05-10T15:58:27.230Z,27.36
2023-05-10T16:00:53.774Z,27.10
2023-05-10T16:03:23.257Z,30.79
2023-05-10T16:05:49.629Z,32.95
2023-05-10T16:08:16.005Z,29.45
2023-05-10T16:10:42.406Z,27.19
2023-05-10T16:13:08.833Z,26.06
2023-05-10T16:15:35.219Z,26.42
2023-05-10T16:18:01.725Z,26.41
2023-05-10T16:20:28.250Z,26.23
2023-05-10T16:22:54.640Z,30.20
2023-05-10T16:25:21.227Z,29.24
2023-05-10T16:27:47.606Z,26.63
2023-05-10T16:30:14.272Z,26.34
2023-05-10T16:32:40.659Z,27.91
2023-05-10T16:35:07.754Z,26.24
2023-05-10T16:37:34.148Z,25.91
2023-05-10T16:40:00.650Z,25.16
2023-05-10T16:42:28.126Z,26.15
2023-05-10T16:44:54.862Z,24.97
2023-05-10T16:47:21.243Z,24.44
2023-05-10T16:49:47.669Z,24.44
2023-05-10T16:52:14.084Z,24.09
2023-05-10T16:54:40.436Z,23.56
2023-05-10T16:57:07.348Z,25.46
2023-05-10T16:59:33.964Z,24.38
2023-05-10T17:02:00.443Z,24.47
2023-05-10T17:04:27.050Z,23.12
2023-05-10T17:06:53.437Z,23.63
2023-05-10T17:09:20.567Z,23.42
2023-05-10T17:11:47.101Z,22.07
2023-05-10T17:14:13.491Z,21.94
2023-05-10T17:16:39.996Z,21.27
2023-05-10T17:19:06.630Z,20.97
2023-05-10T17:21:33.050Z,22.16
2023-05-10T17:23:59.442Z,21.29
2023-05-10T17:26:27.468Z,21.08
2023-05-10T17:28:54.638Z,20.49
2023-05-10T17:31:21.071Z,20.40
2023-05-10T17:33:47.472Z,21.03
2023-05-10T17:36:13.844Z,21.02
2023-05-10T17:38:40.235Z,21.69
2023-05-10T17:41:06.659Z,21.38
2023-05-10T17:43:33.030Z,20.62
2023-05-10T17:45:59.601Z,19.99
2023-05-10T17:48:26.069Z,20.20
2023-05-10T17:50:52.510Z,19.46
2023-05-10T17:53:19.287Z,19.70
2023-05-10T17:55:45.681Z,19.44
2023-05-10T17:58:12.559Z,19.53
2023-05-10T18:00:39.133Z,19.66
2023-05-10T18:03:05.846Z,19.41
2023-05-10T18:05:36.123Z,19.64
2023-05-10T18:08:03.207Z,19.38
2023-05-10T18:10:29.649Z,19.48
2023-05-10T18:12:56.771Z,19.32
2023-05-10T18:15:23.785Z,19.29
2023-05-10T18:17:50.452Z,19.38
2023-05-10T18:20:16.869Z,19.10
2023-05-10T18:22:43.373Z,19.01
2023-05-10T18:25:10.230Z,19.16
2023-05-10T18:27:36.732Z,18.98
2023-05-10T18:30:03.164Z,19.23
2023-05-10T18:32:29.654Z,18.95
2023-05-10T18:34:57.368Z,18.84
2023-05-10T18:37:23.978Z,18.73
2023-05-10T18:39:50.772Z,19.15
2023-05-10T18:42:17.466Z,19.02
2023-05-10T18:44:43.886Z,18.92
2023-05-10T18:47:10.241Z,18.75
2023-05-10T18:49:36.610Z,18.97
2023-05-10T18:52:03.020Z,18.91
2023-05-10T18:54:29.974Z,18.52
2023-05-10T18:56:57.300Z,18.86
2023-05-10T18:59:23.776Z,18.50
2023-05-10T19:01:51.294Z,18.36
2023-05-10T19:04:17.912Z,18.53
2023-05-10T19:06:44.445Z,18.32
2023-05-10T19:09:10.888Z,18.26
2023-05-10T19:11:37.293Z,18.24
2023-05-10T19:14:05.632Z,18.04
2023-05-10T19:16:35.860Z,17.93
2023-05-10T19:19:02.816Z,17.78
2023-05-10T19:21:31.156Z,17.93
2023-05-10T19:23:58.454Z,17.98
2023-05-10T19:26:24.823Z,17.85
2023-05-10T19:28:52.409Z,17.81
2023-05-10T19:31:19.735Z,17.75
2023-05-10T19:33:46.876Z,17.83
2023-05-10T19:36:13.423Z,17.88
2023-05-10T19:38:39.882Z,17.81
2023-05-10T19:41:06.286Z,17.87
2023-05-10T19:43:38.312Z,17.73
2023-05-10T19:46:04.683Z,17.76
2023-05-10T19:48:31.730Z,17.77
2023-05-10T19:51:02.996Z,17.74
2023-05-10T19:53:29.869Z,17.82
2023-05-10T19:55:56.406Z,17.89
2023-05-10T19:58:23.435Z,17.60
2023-05-10T20:00:50.005Z,17.72
2023-05-10T20:03:16.608Z,17.70
2023-05-10T20:05:43.036Z,17.77
2023-05-10T20:08:09.400Z,17.46
2023-05-10T20:10:35.813Z,17.34
2023-05-10T20:13:02.196Z,17.50
2023-05-10T20:15:29.008Z,17.40
2023-05-10T20:17:55.462Z,17.41
2023-05-10T20:20:22.091Z,17.56
2023-05-10T20:22:48.605Z,17.40
2023-05-10T20:25:16.203Z,17.34
2023-05-10T20:27:43.068Z,17.29
2023-05-10T20:30:10.406Z,17.44
2023-05-10T20:32:37.920Z,17.43
2023-05-10T20:35:05.316Z,17.20
2023-05-10T20:37:31.786Z,17.43
2023-05-10T20:39:58.210Z,17.41
2023-05-10T20:42:24.641Z,16.94
2023-05-10T20:44:51.111Z,16.93
2023-05-10T20:47:18.069Z,17.02
2023-05-10T20:49:44.429Z,16.87
2023-05-10T20:52:10.827Z,16.91
2023-05-10T20:54:37.220Z,16.97
2023-05-10T20:57:03.615Z,16.88
2023-05-10T20:59:29.984Z,16.89
2023-05-10T21:01:57.306Z,16.90
2023-05-10T21:04:24.590Z,17.12
2023-05-10T21:06:51.639Z,16.90
2023-05-10T21:09:18.046Z,16.87
2023-05-10T21:11:44.484Z,16.79
2023-05-10T21:14:10.921Z,16.83
2023-05-10T21:16:37.361Z,16.78
2023-05-10T21:19:03.805Z,16.67
2023-05-10T21:21:30.357Z,16.75
2023-05-10T21:23:56.738Z,16.73
2023-05-10T21:26:23.233Z,16.78
2023-05-10T21:28:49.651Z,16.67
2023-05-10T21:31:16.080Z,16.83
2023-05-10T21:33:42.487Z,16.87
2023-05-10T21:36:09.513Z,16.90
2023-05-10T21:38:35.981Z,16.83
2023-05-10T21:41:06.790Z,16.82
2023-05-10T21:43:33.474Z,16.81
2023-05-10T21:45:59.915Z,16.81
2023-05-10T21:48:26.399Z,16.97
2023-05-10T21:50:52.773Z,17.03
2023-05-10T21:53:19.693Z,17.08
2023-05-10T21:55:46.081Z,16.86
2023-05-10T21:58:12.482Z,17.29
2023-05-10T22:00:38.916Z,17.43
2023-05-10T22:03:05.504Z,17.26
2023-05-10T22:05:32.076Z,17.18
2023-05-10T22:07:58.459Z,17.08
2023-05-10T22:10:24.840Z,17.08
2023-05-10T22:12:51.647Z,17.20
2023-05-10T22:15:18.154Z,17.13
2023-05-10T22:17:44.593Z,17.28
2023-05-10T22:20:11.090Z,17.24
2023-05-10T22:22:37.556Z,17.09
2023-05-10T22:25:08.342Z,17.17
2023-05-10T22:27:34.966Z,17.19
2023-05-10T22:30:01.560Z,16.92
2023-05-10T22:32:28.062Z,16.98
2023-05-10T22:34:54.535Z,17.05
2023-05-10T22:37:20.909Z,17.03
2023-05-10T22:39:47.275Z,16.85
2023-05-10T22:42:13.652Z,16.74
2023-05-10T22:44:40.035Z,16.95
2023-05-10T22:47:06.803Z,16.88
2023-05-10T22:49:33.715Z,16.92
2023-05-10T22:52:00.523Z,16.94
2023-05-10T22:54:27.178Z,16.77
2023-05-10T22:56:53.853Z,16.51
2023-05-10T22:59:20.654Z,16.83
2023-05-10T23:01:48.849Z,16.91
2023-05-10T23:04:15.783Z,16.69
2023-05-10T23:06:42.206Z,16.76
2023-05-10T23:09:08.983Z,16.70
2023-05-10T23:11:35.362Z,16.69
2023-05-10T23:14:01.786Z,16.69
2023-05-10T23:16:28.177Z,16.66
2023-05-10T23:18:54.774Z,16.69
2023-05-10T23:21:21.452Z,16.68
2023-05-10T23:23:47.994Z,16.59
2023-05-10T23:26:14.435Z,16.64
2023-05-10T23:28:41.034Z,16.70
2023-05-10T23:31:07.398Z,16.35
2023-05-10T23:33:33.782Z,16.38
2023-05-10T23:36:00.176Z,16.34
2023-05-10T23:38:26.964Z,16.18
2023-05-10T23:40:53.447Z,16.08
2023-05-10T23:43:20.766Z,16.22
2023-05-10T23:45:54.733Z,16.12
2023-05-10T23:48:21.527Z,15.99
2023-05-10T23:50:47.915Z,16.18
2023-05-10T23:53:14.380Z,16.43
2023-05-10T23:55:40.758Z,16.06
2023-05-10T23:58:07.120Z,16.06
